sensor_id;sensor_type;location;lat;lon;timestamp;pressure;altitude;pressure_sealevel;temperature;humidity
55289;BME280;41154;45.394;5.734;2023-07-02T00:00:06;96860.91;;;17.95;100.00
55289;BME280;41154;45.394;5.734;2023-07-02T00:02:36;96867.69;;;17.65;100.00
55289;BME280;41154;45.394;5.734;2023-07-02T00:05:03;96870.72;;;17.77;100.00
55289;BME280;41154;45.394;5.734;2023-07-02T00:07:28;96882.72;;;17.57;100.00
55289;BME280;41154;45.394;5.734;2023-07-02T00:09:54;96880.75;;;17.63;100.00
55289;BME280;41154;45.394;5.734;2023-07-02T00:12:20;96883.69;;;17.81;100.00
55289;BME280;41154;45.394;5.734;2023-07-02T00:14:45;96876.72;;;17.60;100.00
55289;BME280;41154;45.394;5.734;2023-07-02T00:17:11;96877.88;;;17.40;100.00
55289;BME280;41154;45.394;5.734;2023-07-02T00:19:40;96874.94;;;17.37;100.00
55289;BME280;41154;45.394;5.734;2023-07-02T00:22:10;96873.03;;;17.23;100.00
55289;BME280;41154;45.394;5.734;2023-07-02T00:24:36;96868.59;;;17.28;100.00
55289;BME280;41154;45.394;5.734;2023-07-02T00:27:03;96866.41;;;17.30;100.00
55289;BME280;41154;45.394;5.734;2023-07-02T00:29:29;96868.78;;;17.50;100.00
55289;BME280;41154;45.394;5.734;2023-07-02T00:31:55;96870.47;;;17.46;100.00
55289;BME280;41154;45.394;5.734;2023-07-02T00:34:22;96862.22;;;17.51;100.00
55289;BME280;41154;45.394;5.734;2023-07-02T00:36:48;96866.72;;;17.42;100.00
55289;BME280;41154;45.394;5.734;2023-07-02T00:39:15;96867.75;;;17.46;100.00
55289;BME280;41154;45.394;5.734;2023-07-02T00:41:44;96859.72;;;17.08;100.00
55289;BME280;41154;45.394;5.734;2023-07-02T00:44:14;96860.88;;;17.02;100.00
55289;BME280;41154;45.394;5.734;2023-07-02T00:46:40;96864.19;;;16.99;100.00
55289;BME280;41154;45.394;5.734;2023-07-02T00:49:07;96861.97;;;17.01;100.00
55289;BME280;41154;45.394;5.734;2023-07-02T00:51:33;96855.03;;;16.95;100.00
55289;BME280;41154;45.394;5.734;2023-07-02T00:54:00;96861.03;;;16.92;100.00
55289;BME280;41154;45.394;5.734;2023-07-02T00:56:27;96855.47;;;17.02;100.00
55289;BME280;41154;45.394;5.734;2023-07-02T00:58:54;96851.81;;;16.93;100.00
55289;BME280;41154;45.394;5.734;2023-07-02T01:01:21;96853.84;;;17.01;100.00
55289;BME280;41154;45.394;5.734;2023-07-02T01:03:55;96851.00;;;16.92;100.00
55289;BME280;41154;45.394;5.734;2023-07-02T01:06:25;96848.13;;;17.02;100.00
55289;BME280;41154;45.394;5.734;2023-07-02T01:08:56;96851.88;;;16.87;100.00
55289;BME280;41154;45.394;5.734;2023-07-02T01:11:40;96849.91;;;16.74;100.00
55289;BME280;41154;45.394;5.734;2023-07-02T01:14:09;96855.91;;;16.71;100.00
55289;BME280;41154;45.394;5.734;2023-07-02T01:16:37;96857.44;;;16.77;100.00
55289;BME280;41154;45.394;5.734;2023-07-02T01:19:11;96861.97;;;16.63;100.00
55289;BME280;41154;45.394;5.734;2023-07-02T01:21:38;96853.41;;;16.75;100.00
55289;BME280;41154;45.394;5.734;2023-07-02T01:24:06;96854.16;;;16.99;100.00
55289;BME280;41154;45.394;5.734;2023-07-02T01:26:33;96852.81;;;16.97;100.00
55289;BME280;41154;45.394;5.734;2023-07-02T01:29:12;96856.63;;;16.77;100.00
55289;BME280;41154;45.394;5.734;2023-07-02T01:31:38;96850.94;;;16.78;100.00
55289;BME280;41154;45.394;5.734;2023-07-02T01:34:04;96851.63;;;16.84;100.00
55289;BME280;41154;45.394;5.734;2023-07-02T01:36:30;96855.72;;;17.19;100.00
55289;BME280;41154;45.394;5.734;2023-07-02T01:38:56;96858.69;;;17.04;100.00
55289;BME280;41154;45.394;5.734;2023-07-02T01:41:21;96853.25;;;16.85;100.00
55289;BME280;41154;45.394;5.734;2023-07-02T01:43:47;96858.22;;;16.78;100.00
55289;BME280;41154;45.394;5.734;2023-07-02T01:46:13;96862.34;;;16.75;100.00
55289;BME280;41154;45.394;5.734;2023-07-02T01:48:38;96858.97;;;16.83;100.00
55289;BME280;41154;45.394;5.734;2023-07-02T01:51:05;96851.88;;;16.87;100.00
55289;BME280;41154;45.394;5.734;2023-07-02T01:53:30;96855.53;;;16.97;100.00
55289;BME280;41154;45.394;5.734;2023-07-02T01:55:56;96859.34;;;16.96;100.00
55289;BME280;41154;45.394;5.734;2023-07-02T01:58:22;96863.59;;;16.83;100.00
55289;BME280;41154;45.394;5.734;2023-07-02T02:00:49;96854.66;;;16.82;100.00
55289;BME280;41154;45.394;5.734;2023-07-02T02:03:15;96856.94;;;16.75;100.00
55289;BME280;41154;45.394;5.734;2023-07-02T02:05:41;96860.81;;;16.69;100.00
55289;BME280;41154;45.394;5.734;2023-07-02T02:08:06;96859.66;;;16.75;100.00
55289;BME280;41154;45.394;5.734;2023-07-02T02:10:32;96854.81;;;16.72;100.00
55289;BME280;41154;45.394;5.734;2023-07-02T02:12:58;96850.78;;;16.88;100.00
55289;BME280;41154;45.394;5.734;2023-07-02T02:15:23;96853.69;;;16.92;100.00
55289;BME280;41154;45.394;5.734;2023-07-02T02:17:52;96851.50;;;16.75;100.00
55289;BME280;41154;45.394;5.734;2023-07-02T02:20:18;96857.28;;;16.68;100.00
55289;BME280;41154;45.394;5.734;2023-07-02T02:22:45;96854.34;;;16.84;100.00
55289;BME280;41154;45.394;5.734;2023-07-02T02:25:12;96853.34;;;16.80;100.00
55289;BME280;41154;45.394;5.734;2023-07-02T02:27:38;96851.94;;;16.82;100.00
55289;BME280;41154;45.394;5.734;2023-07-02T02:30:07;96848.16;;;16.64;100.00
55289;BME280;41154;45.394;5.734;2023-07-02T02:32:34;96852.75;;;16.83;100.00
55289;BME280;41154;45.394;5.734;2023-07-02T02:35:01;96849.81;;;16.60;100.00
55289;BME280;41154;45.394;5.734;2023-07-02T02:37:29;96845.78;;;16.58;100.00
55289;BME280;41154;45.394;5.734;2023-07-02T02:39:57;96845.19;;;16.61;100.00
55289;BME280;41154;45.394;5.734;2023-07-02T02:42:25;96849.06;;;16.54;100.00
55289;BME280;41154;45.394;5.734;2023-07-02T02:44:51;96844.78;;;16.53;100.00
55289;BME280;41154;45.394;5.734;2023-07-02T02:47:17;96848.44;;;16.63;100.00
55289;BME280;41154;45.394;5.734;2023-07-02T02:49:42;96848.00;;;16.56;100.00
55289;BME280;41154;45.394;5.734;2023-07-02T02:52:08;96837.16;;;16.56;100.00
55289;BME280;41154;45.394;5.734;2023-07-02T02:54:34;96840.91;;;16.60;100.00
55289;BME280;41154;45.394;5.734;2023-07-02T02:57:00;96845.66;;;16.49;100.00
55289;BME280;41154;45.394;5.734;2023-07-02T02:59:25;96848.50;;;16.39;100.00
55289;BME280;41154;45.394;5.734;2023-07-02T03:01:52;96852.16;;;16.48;100.00
55289;BME280;41154;45.394;5.734;2023-07-02T03:04:20;96845.41;;;16.45;100.00
55289;BME280;41154;45.394;5.734;2023-07-02T03:06:49;96846.25;;;16.46;100.00
55289;BME280;41154;45.394;5.734;2023-07-02T03:09:16;96841.50;;;16.57;100.00
55289;BME280;41154;45.394;5.734;2023-07-02T03:11:42;96847.91;;;16.61;100.00
55289;BME280;41154;45.394;5.734;2023-07-02T03:14:07;96844.13;;;16.62;100.00
55289;BME280;41154;45.394;5.734;2023-07-02T03:16:33;96854.00;;;16.52;100.00
55289;BME280;41154;45.394;5.734;2023-07-02T03:18:59;96859.63;;;16.56;100.00
55289;BME280;41154;45.394;5.734;2023-07-02T03:21:25;96852.25;;;16.62;100.00
55289;BME280;41154;45.394;5.734;2023-07-02T03:23:51;96852.81;;;16.59;100.00
55289;BME280;41154;45.394;5.734;2023-07-02T03:26:17;96860.28;;;16.67;100.00
55289;BME280;41154;45.394;5.734;2023-07-02T03:28:43;96849.97;;;16.69;100.00
55289;BME280;41154;45.394;5.734;2023-07-02T03:31:09;96848.56;;;16.91;100.00
55289;BME280;41154;45.394;5.734;2023-07-02T03:33:35;96856.84;;;16.61;100.00
55289;BME280;41154;45.394;5.734;2023-07-02T03:36:01;96859.91;;;16.54;100.00
55289;BME280;41154;45.394;5.734;2023-07-02T03:38:27;96853.91;;;16.58;100.00
55289;BME280;41154;45.394;5.734;2023-07-02T03:40:53;96845.13;;;16.47;100.00
55289;BME280;41154;45.394;5.734;2023-07-02T03:43:18;96854.28;;;16.70;100.00
55289;BME280;41154;45.394;5.734;2023-07-02T03:45:44;96859.91;;;16.54;100.00
55289;BME280;41154;45.394;5.734;2023-07-02T03:48:11;96863.44;;;16.74;100.00
55289;BME280;41154;45.394;5.734;2023-07-02T03:50:37;96860.16;;;16.77;100.00
55289;BME280;41154;45.394;5.734;2023-07-02T03:53:03;96861.75;;;16.78;100.00
55289;BME280;41154;45.394;5.734;2023-07-02T03:55:29;96860.44;;;16.57;100.00
55289;BME280;41154;45.394;5.734;2023-07-02T03:57:54;96857.78;;;16.51;100.00
55289;BME280;41154;45.394;5.734;2023-07-02T04:00:20;96859.25;;;16.44;100.00
55289;BME280;41154;45.394;5.734;2023-07-02T04:02:46;96853.53;;;16.45;100.00
55289;BME280;41154;45.394;5.734;2023-07-02T04:05:11;96862.03;;;16.58;100.00
55289;BME280;41154;45.394;5.734;2023-07-02T04:07:37;96863.25;;;16.89;100.00
55289;BME280;41154;45.394;5.734;2023-07-02T04:10:03;96858.47;;;16.81;100.00
55289;BME280;41154;45.394;5.734;2023-07-02T04:12:31;96866.94;;;16.56;100.00
55289;BME280;41154;45.394;5.734;2023-07-02T04:14:56;96868.56;;;16.57;100.00
55289;BME280;41154;45.394;5.734;2023-07-02T04:17:22;96867.59;;;16.47;100.00
55289;BME280;41154;45.394;5.734;2023-07-02T04:19:48;96871.84;;;16.53;100.00
55289;BME280;41154;45.394;5.734;2023-07-02T04:22:14;96873.75;;;16.53;100.00
55289;BME280;41154;45.394;5.734;2023-07-02T04:24:40;96872.66;;;16.54;100.00
55289;BME280;41154;45.394;5.734;2023-07-02T04:27:05;96867.44;;;16.58;100.00
55289;BME280;41154;45.394;5.734;2023-07-02T04:29:31;96869.00;;;16.64;100.00
55289;BME280;41154;45.394;5.734;2023-07-02T04:31:57;96872.72;;;16.68;100.00
55289;BME280;41154;45.394;5.734;2023-07-02T04:34:23;96870.09;;;16.63;100.00
55289;BME280;41154;45.394;5.734;2023-07-02T04:36:50;96876.09;;;16.60;100.00
55289;BME280;41154;45.394;5.734;2023-07-02T04:39:16;96879.53;;;16.65;100.00
55289;BME280;41154;45.394;5.734;2023-07-02T04:41:43;96876.47;;;16.72;100.00
55289;BME280;41154;45.394;5.734;2023-07-02T04:44:09;96870.31;;;16.66;100.00
55289;BME280;41154;45.394;5.734;2023-07-02T04:46:37;96870.59;;;16.65;100.00
55289;BME280;41154;45.394;5.734;2023-07-02T04:49:02;96881.72;;;16.63;100.00
55289;BME280;41154;45.394;5.734;2023-07-02T04:51:28;96877.94;;;16.64;100.00
55289;BME280;41154;45.394;5.734;2023-07-02T04:53:54;96878.59;;;16.75;100.00
55289;BME280;41154;45.394;5.734;2023-07-02T04:56:19;96878.31;;;16.77;100.00
55289;BME280;41154;45.394;5.734;2023-07-02T04:58:45;96880.19;;;16.76;100.00
55289;BME280;41154;45.394;5.734;2023-07-02T05:01:11;96884.44;;;16.82;100.00
55289;BME280;41154;45.394;5.734;2023-07-02T05:03:37;96884.44;;;16.82;100.00
55289;BME280;41154;45.394;5.734;2023-07-02T05:06:03;96881.44;;;16.84;100.00
55289;BME280;41154;45.394;5.734;2023-07-02T05:08:29;96886.66;;;16.80;100.00
55289;BME280;41154;45.394;5.734;2023-07-02T05:10:55;96884.44;;;16.82;100.00
55289;BME280;41154;45.394;5.734;2023-07-02T05:13:21;96885.03;;;16.79;100.00
55289;BME280;41154;45.394;5.734;2023-07-02T05:15:47;96894.19;;;16.83;100.00
55289;BME280;41154;45.394;5.734;2023-07-02T05:18:12;96881.31;;;16.94;100.00
55289;BME280;41154;45.394;5.734;2023-07-02T05:20:38;96884.25;;;16.98;100.00
55289;BME280;41154;45.394;5.734;2023-07-02T05:23:04;96886.06;;;17.02;100.00
55289;BME280;41154;45.394;5.734;2023-07-02T05:25:29;96889.97;;;16.96;100.00
55289;BME280;41154;45.394;5.734;2023-07-02T05:27:55;96887.53;;;16.95;100.00
55289;BME280;41154;45.394;5.734;2023-07-02T05:30:22;96889.88;;;17.01;100.00
55289;BME280;41154;45.394;5.734;2023-07-02T05:32:48;96877.22;;;16.97;100.00
55289;BME280;41154;45.394;5.734;2023-07-02T05:35:13;96872.72;;;17.06;100.00
55289;BME280;41154;45.394;5.734;2023-07-02T05:37:39;96878.09;;;17.11;100.00
55289;BME280;41154;45.394;5.734;2023-07-02T05:40:05;96886.03;;;17.21;100.00
55289;BME280;41154;45.394;5.734;2023-07-02T05:42:31;96882.88;;;17.33;100.00
55289;BME280;41154;45.394;5.734;2023-07-02T05:44:58;96881.50;;;17.50;100.00
55289;BME280;41154;45.394;5.734;2023-07-02T05:47:24;96884.56;;;17.62;100.00
55289;BME280;41154;45.394;5.734;2023-07-02T05:49:49;96890.69;;;17.68;100.00
55289;BME280;41154;45.394;5.734;2023-07-02T05:52:15;96888.22;;;17.85;100.00
55289;BME280;41154;45.394;5.734;2023-07-02T05:54:41;96887.41;;;17.85;100.00
55289;BME280;41154;45.394;5.734;2023-07-02T05:57:06;96878.34;;;17.75;100.00
55289;BME280;41154;45.394;5.734;2023-07-02T05:59:32;96893.25;;;17.78;100.00
55289;BME280;41154;45.394;5.734;2023-07-02T06:02:00;96887.63;;;17.88;100.00
55289;BME280;41154;45.394;5.734;2023-07-02T06:04:26;96894.69;;;17.89;100.00
55289;BME280;41154;45.394;5.734;2023-07-02T06:06:51;96896.59;;;18.30;100.00
55289;BME280;41154;45.394;5.734;2023-07-02T06:09:17;96895.09;;;18.24;100.00
55289;BME280;41154;45.394;5.734;2023-07-02T06:11:43;96902.63;;;18.13;100.00
55289;BME280;41154;45.394;5.734;2023-07-02T06:14:09;96910.56;;;18.10;100.00
55289;BME280;41154;45.394;5.734;2023-07-02T06:16:34;96906.78;;;18.25;100.00
55289;BME280;41154;45.394;5.734;2023-07-02T06:19:00;96917.31;;;18.40;100.00
55289;BME280;41154;45.394;5.734;2023-07-02T06:21:26;96915.00;;;18.33;100.00
55289;BME280;41154;45.394;5.734;2023-07-02T06:23:55;96922.75;;;18.40;100.00
55289;BME280;41154;45.394;5.734;2023-07-02T06:26:22;96922.22;;;18.10;100.00
55289;BME280;41154;45.394;5.734;2023-07-02T06:28:47;96923.97;;;18.20;100.00
55289;BME280;41154;45.394;5.734;2023-07-02T06:31:14;96924.66;;;18.12;100.00
55289;BME280;41154;45.394;5.734;2023-07-02T06:33:40;96929.38;;;17.59;100.00
55289;BME280;41154;45.394;5.734;2023-07-02T06:36:08;96922.41;;;17.53;100.00
55289;BME280;41154;45.394;5.734;2023-07-02T06:38:34;96931.94;;;17.51;100.00
55289;BME280;41154;45.394;5.734;2023-07-02T06:41:00;96930.53;;;17.86;100.00
55289;BME280;41154;45.394;5.734;2023-07-02T06:43:26;96930.19;;;18.21;100.00
55289;BME280;41154;45.394;5.734;2023-07-02T06:45:51;96934.09;;;18.14;100.00
55289;BME280;41154;45.394;5.734;2023-07-02T06:48:17;96941.47;;;18.28;100.00
55289;BME280;41154;45.394;5.734;2023-07-02T06:50:46;96941.16;;;18.16;100.00
55289;BME280;41154;45.394;5.734;2023-07-02T06:53:12;96952.63;;;18.12;100.00
55289;BME280;41154;45.394;5.734;2023-07-02T06:55:38;96938.16;;;18.31;100.00
55289;BME280;41154;45.394;5.734;2023-07-02T06:58:07;96944.47;;;18.40;100.00
55289;BME280;41154;45.394;5.734;2023-07-02T07:00:33;96940.66;;;18.41;100.00
55289;BME280;41154;45.394;5.734;2023-07-02T07:03:03;96945.28;;;18.55;100.00
55289;BME280;41154;45.394;5.734;2023-07-02T07:05:32;96951.13;;;18.20;100.00
55289;BME280;41154;45.394;5.734;2023-07-02T07:07:59;96948.06;;;18.63;100.00
55289;BME280;41154;45.394;5.734;2023-07-02T07:10:26;96952.41;;;18.23;100.00
55289;BME280;41154;45.394;5.734;2023-07-02T07:12:52;96944.56;;;18.21;100.00
55289;BME280;41154;45.394;5.734;2023-07-02T07:15:18;96951.31;;;18.65;100.00
55289;BME280;41154;45.394;5.734;2023-07-02T07:17:43;96950.28;;;18.75;100.00
55289;BME280;41154;45.394;5.734;2023-07-02T07:20:10;96945.94;;;18.88;100.00
55289;BME280;41154;45.394;5.734;2023-07-02T07:22:35;96941.34;;;18.89;100.00
55289;BME280;41154;45.394;5.734;2023-07-02T07:25:01;96946.97;;;18.92;100.00
55289;BME280;41154;45.394;5.734;2023-07-02T07:27:27;96950.72;;;19.19;100.00
55289;BME280;41154;45.394;5.734;2023-07-02T07:29:53;96954.09;;;19.38;100.00
55289;BME280;41154;45.394;5.734;2023-07-02T07:32:20;96953.69;;;19.54;100.00
55289;BME280;41154;45.394;5.734;2023-07-02T07:34:46;96957.28;;;19.40;100.00
55289;BME280;41154;45.394;5.734;2023-07-02T07:37:12;96952.47;;;19.01;100.00
55289;BME280;41154;45.394;5.734;2023-07-02T07:39:37;96957.28;;;19.40;100.00
55289;BME280;41154;45.394;5.734;2023-07-02T07:42:03;96966.13;;;19.69;100.00
55289;BME280;41154;45.394;5.734;2023-07-02T07:44:29;96958.00;;;20.00;100.00
55289;BME280;41154;45.394;5.734;2023-07-02T07:46:56;96956.47;;;19.63;100.00
55289;BME280;41154;45.394;5.734;2023-07-02T07:49:22;96952.94;;;20.07;100.00
55289;BME280;41154;45.394;5.734;2023-07-02T07:51:48;96948.56;;;20.78;100.00
55289;BME280;41154;45.394;5.734;2023-07-02T07:54:14;96945.22;;;20.98;100.00
55289;BME280;41154;45.394;5.734;2023-07-02T07:56:40;96943.63;;;22.23;100.00
55289;BME280;41154;45.394;5.734;2023-07-02T07:59:05;96947.72;;;23.07;100.00
55289;BME280;41154;45.394;5.734;2023-07-02T08:01:31;96953.59;;;22.37;100.00
55289;BME280;41154;45.394;5.734;2023-07-02T08:03:57;96957.28;;;22.41;100.00
55289;BME280;41154;45.394;5.734;2023-07-02T08:06:23;96953.28;;;23.40;100.00
55289;BME280;41154;45.394;5.734;2023-07-02T08:08:48;96949.81;;;23.10;100.00
55289;BME280;41154;45.394;5.734;2023-07-02T08:11:14;96954.69;;;22.74;100.00
55289;BME280;41154;45.394;5.734;2023-07-02T08:13:40;96953.59;;;22.67;100.00
55289;BME280;41154;45.394;5.734;2023-07-02T08:16:05;96967.44;;;23.42;100.00
55289;BME280;41154;45.394;5.734;2023-07-02T08:18:31;96956.66;;;22.65;100.00
55289;BME280;41154;45.394;5.734;2023-07-02T08:20:57;96963.53;;;22.41;100.00
55289;BME280;41154;45.394;5.734;2023-07-02T08:23:23;96956.19;;;22.93;100.00
55289;BME280;41154;45.394;5.734;2023-07-02T08:25:48;96964.28;;;22.80;100.00
55289;BME280;41154;45.394;5.734;2023-07-02T08:28:14;96961.31;;;23.45;100.00
55289;BME280;41154;45.394;5.734;2023-07-02T08:30:40;96954.50;;;23.85;100.00
55289;BME280;41154;45.394;5.734;2023-07-02T08:33:05;96950.75;;;23.35;100.00
55289;BME280;41154;45.394;5.734;2023-07-02T08:35:31;96956.63;;;25.24;94.87
55289;BME280;41154;45.394;5.734;2023-07-02T08:37:57;96931.19;;;26.92;81.65
55289;BME280;41154;45.394;5.734;2023-07-02T08:40:23;96932.16;;;29.20;70.70
55289;BME280;41154;45.394;5.734;2023-07-02T08:42:49;96937.72;;;24.20;99.67
55289;BME280;41154;45.394;5.734;2023-07-02T08:45:15;96936.94;;;22.80;100.00
55289;BME280;41154;45.394;5.734;2023-07-02T08:47:44;96932.22;;;21.65;100.00
55289;BME280;41154;45.394;5.734;2023-07-02T08:50:13;96928.78;;;22.03;100.00
55289;BME280;41154;45.394;5.734;2023-07-02T08:52:39;96930.66;;;21.56;100.00
55289;BME280;41154;45.394;5.734;2023-07-02T08:55:06;96931.06;;;21.75;100.00
55289;BME280;41154;45.394;5.734;2023-07-02T08:57:31;96928.69;;;23.52;100.00
55289;BME280;41154;45.394;5.734;2023-07-02T08:59:58;96926.91;;;23.57;100.00
55289;BME280;41154;45.394;5.734;2023-07-02T09:02:34;96927.66;;;24.36;100.00
55289;BME280;41154;45.394;5.734;2023-07-02T09:05:03;96932.91;;;24.79;93.42
55289;BME280;41154;45.394;5.734;2023-07-02T09:07:29;96930.50;;;24.15;100.00
55289;BME280;41154;45.394;5.734;2023-07-02T09:09:55;96925.84;;;22.56;100.00
55289;BME280;41154;45.394;5.734;2023-07-02T09:12:30;96920.00;;;24.30;100.00
55289;BME280;41154;45.394;5.734;2023-07-02T09:15:04;96926.97;;;24.89;100.00
55289;BME280;41154;45.394;5.734;2023-07-02T09:17:38;96931.13;;;24.70;100.00
55289;BME280;41154;45.394;5.734;2023-07-02T09:20:07;96935.53;;;23.80;100.00
55289;BME280;41154;45.394;5.734;2023-07-02T09:22:34;96929.53;;;23.86;100.00
55289;BME280;41154;45.394;5.734;2023-07-02T09:25:01;96929.44;;;22.98;100.00
55289;BME280;41154;45.394;5.734;2023-07-02T09:27:34;96925.31;;;23.68;100.00
55289;BME280;41154;45.394;5.734;2023-07-02T09:30:09;96930.84;;;23.05;100.00
55289;BME280;41154;45.394;5.734;2023-07-02T09:32:35;96931.84;;;23.76;100.00
55289;BME280;41154;45.394;5.734;2023-07-02T09:35:01;96929.69;;;25.01;94.33
55289;BME280;41154;45.394;5.734;2023-07-02T09:37:27;96926.69;;;25.19;92.92
55289;BME280;41154;45.394;5.734;2023-07-02T09:39:54;96932.81;;;23.59;98.63
55289;BME280;41154;45.394;5.734;2023-07-02T09:42:21;96934.09;;;23.95;97.75
55289;BME280;41154;45.394;5.734;2023-07-02T09:44:47;96917.91;;;25.98;94.63
55289;BME280;41154;45.394;5.734;2023-07-02T09:47:18;96916.50;;;27.23;80.02
55289;BME280;41154;45.394;5.734;2023-07-02T09:49:55;96914.00;;;26.79;83.48
55289;BME280;41154;45.394;5.734;2023-07-02T09:52:24;96909.56;;;25.66;84.01
55289;BME280;41154;45.394;5.734;2023-07-02T09:54:51;96901.19;;;25.75;100.00
55289;BME280;41154;45.394;5.734;2023-07-02T09:57:17;96897.50;;;25.55;82.57
55289;BME280;41154;45.394;5.734;2023-07-02T09:59:42;96904.78;;;25.63;82.89
55289;BME280;41154;45.394;5.734;2023-07-02T10:02:09;96904.59;;;24.74;86.23
55289;BME280;41154;45.394;5.734;2023-07-02T10:04:44;96903.09;;;25.30;95.44
55289;BME280;41154;45.394;5.734;2023-07-02T10:07:11;96901.06;;;25.99;82.69
55289;BME280;41154;45.394;5.734;2023-07-02T10:09:43;96899.28;;;26.39;79.18
55289;BME280;41154;45.394;5.734;2023-07-02T10:12:44;96906.06;;;25.81;84.00
55289;BME280;41154;45.394;5.734;2023-07-02T10:15:10;96904.03;;;25.22;92.42
55289;BME280;41154;45.394;5.734;2023-07-02T10:17:36;96897.41;;;25.51;85.78
55289;BME280;41154;45.394;5.734;2023-07-02T10:20:06;96901.81;;;24.13;97.40
55289;BME280;41154;45.394;5.734;2023-07-02T10:22:46;96890.00;;;23.00;100.00
55289;BME280;41154;45.394;5.734;2023-07-02T10:25:37;96901.16;;;21.96;100.00
55289;BME280;41154;45.394;5.734;2023-07-02T10:28:21;96900.63;;;22.12;100.00
55289;BME280;41154;45.394;5.734;2023-07-02T10:30:52;96913.81;;;22.48;100.00
55289;BME280;41154;45.394;5.734;2023-07-02T10:33:19;96916.72;;;22.73;100.00
55289;BME280;41154;45.394;5.734;2023-07-02T10:35:47;96916.00;;;23.06;100.00
55289;BME280;41154;45.394;5.734;2023-07-02T10:40:54;96927.50;;;24.08;97.42
55289;BME280;41154;45.394;5.734;2023-07-02T10:43:27;96920.56;;;24.48;92.54
55289;BME280;41154;45.394;5.734;2023-07-02T10:45:54;96916.38;;;23.25;100.00
55289;BME280;41154;45.394;5.734;2023-07-02T10:48:20;96917.34;;;22.78;100.00
55289;BME280;41154;45.394;5.734;2023-07-02T10:50:45;96928.63;;;22.47;100.00
55289;BME280;41154;45.394;5.734;2023-07-02T10:53:18;96926.06;;;21.95;100.00
55289;BME280;41154;45.394;5.734;2023-07-02T10:55:44;96918.38;;;22.65;100.00
55289;BME280;41154;45.394;5.734;2023-07-02T10:58:11;96920.41;;;22.77;100.00
55289;BME280;41154;45.394;5.734;2023-07-02T11:01:03;96917.50;;;23.45;99.92
55289;BME280;41154;45.394;5.734;2023-07-02T11:03:29;96910.28;;;24.94;95.05
55289;BME280;41154;45.394;5.734;2023-07-02T11:05:55;96915.41;;;24.96;97.02
55289;BME280;41154;45.394;5.734;2023-07-02T11:08:21;96914.50;;;24.05;88.45
55289;BME280;41154;45.394;5.734;2023-07-02T11:10:48;96909.44;;;23.61;100.00
55289;BME280;41154;45.394;5.734;2023-07-02T11:13:16;96910.16;;;24.04;90.91
55289;BME280;41154;45.394;5.734;2023-07-02T11:15:43;96920.34;;;23.82;93.38
55289;BME280;41154;45.394;5.734;2023-07-02T11:18:14;96911.88;;;23.42;92.07
55289;BME280;41154;45.394;5.734;2023-07-02T11:20:42;96905.03;;;24.15;92.74
55289;BME280;41154;45.394;5.734;2023-07-02T11:23:21;96904.59;;;24.25;95.02
55289;BME280;41154;45.394;5.734;2023-07-02T11:25:58;96904.34;;;23.39;94.62
55289;BME280;41154;45.394;5.734;2023-07-02T11:28:24;96910.88;;;24.38;88.68
55289;BME280;41154;45.394;5.734;2023-07-02T11:30:50;96909.47;;;24.07;85.10
55289;BME280;41154;45.394;5.734;2023-07-02T11:33:16;96909.50;;;24.32;88.50
55289;BME280;41154;45.394;5.734;2023-07-02T11:35:42;96908.81;;;24.35;87.49
55289;BME280;41154;45.394;5.734;2023-07-02T11:38:10;96906.19;;;24.75;82.33
55289;BME280;41154;45.394;5.734;2023-07-02T11:40:37;96912.19;;;25.06;84.38
55289;BME280;41154;45.394;5.734;2023-07-02T11:43:02;96909.59;;;24.85;83.28
55289;BME280;41154;45.394;5.734;2023-07-02T11:45:28;96907.19;;;24.83;79.21
55289;BME280;41154;45.394;5.734;2023-07-02T11:47:54;96907.88;;;24.55;83.34
55289;BME280;41154;45.394;5.734;2023-07-02T11:50:20;96905.59;;;24.20;86.05
55289;BME280;41154;45.394;5.734;2023-07-02T11:52:46;96907.31;;;24.25;100.00
55289;BME280;41154;45.394;5.734;2023-07-02T11:55:12;96919.22;;;23.50;91.79
55289;BME280;41154;45.394;5.734;2023-07-02T11:57:38;96914.66;;;23.54;91.84
55289;BME280;41154;45.394;5.734;2023-07-02T12:00:04;96901.59;;;24.30;98.23
55289;BME280;41154;45.394;5.734;2023-07-02T12:02:33;96897.50;;;24.49;97.29
55289;BME280;41154;45.394;5.734;2023-07-02T12:04:59;96907.78;;;24.76;86.71
55289;BME280;41154;45.394;5.734;2023-07-02T12:07:27;96896.38;;;24.62;87.01
55289;BME280;41154;45.394;5.734;2023-07-02T12:09:53;96892.81;;;24.49;84.24
55289;BME280;41154;45.394;5.734;2023-07-02T12:12:19;96881.50;;;24.63;83.93
55289;BME280;41154;45.394;5.734;2023-07-02T12:14:44;96882.66;;;24.25;91.38
55289;BME280;41154;45.394;5.734;2023-07-02T12:17:10;96885.00;;;23.23;95.27
55289;BME280;41154;45.394;5.734;2023-07-02T12:19:39;96880.56;;;23.85;92.27
55289;BME280;41154;45.394;5.734;2023-07-02T12:22:06;96882.25;;;23.44;95.88
55289;BME280;41154;45.394;5.734;2023-07-02T12:24:32;96871.50;;;22.96;94.45
55289;BME280;41154;45.394;5.734;2023-07-02T12:26:57;96885.13;;;23.26;95.51
55289;BME280;41154;45.394;5.734;2023-07-02T12:29:23;96891.50;;;23.18;95.23
55289;BME280;41154;45.394;5.734;2023-07-02T12:31:49;96895.03;;;23.52;94.56
55289;BME280;41154;45.394;5.734;2023-07-02T12:34:15;96897.03;;;23.64;100.00
55289;BME280;41154;45.394;5.734;2023-07-02T12:36:41;96895.94;;;23.02;100.00
55289;BME280;41154;45.394;5.734;2023-07-02T12:39:07;96898.47;;;23.07;100.00
55289;BME280;41154;45.394;5.734;2023-07-02T12:41:33;96901.03;;;23.66;100.00
55289;BME280;41154;45.394;5.734;2023-07-02T12:43:59;96897.00;;;23.30;100.00
55289;BME280;41154;45.394;5.734;2023-07-02T12:46:25;96899.56;;;23.69;100.00
55289;BME280;41154;45.394;5.734;2023-07-02T12:48:51;96897.41;;;24.45;94.50
55289;BME280;41154;45.394;5.734;2023-07-02T12:51:16;96894.59;;;24.94;92.41
55289;BME280;41154;45.394;5.734;2023-07-02T12:53:42;96888.56;;;24.89;96.13